Aérodrome :
LOGIN :

S'inscrire | Disclaimer

   EN    FR    IT 

 










Légende :    VFR   VFR Marginal   IFR   IFR Intensif   IFR Très Intensif
Visi : 
Plafond : 
>= 8 km
>= 3000ft
5 à 8 km
1000 à 3000 ft
1500m à 5 km
500 à 1000 ft
800 à 1500m
200 à 500 ft
< 800m
< 200 ft
Symboles :   Orages  Brouillard  Fortes neiges  Fortes précipitations  Vent > 20 kt
SIGMETs :   Divers  Orages  Givrage  Turbulence  Onde Orograph.  Cendres Volcan.







- Altitude de l'aérodrome : 306 ft
- Code IATA : EMA
- Voir les cartes d'approche


EGNX - Nottingham East Midlands

DERNIER METAR :
  • 201250Z 34015KT 9999 BKN033 09/02 Q1022

METARs EXPIRÉS :
  • 201220Z 33016KT 9999 BKN030 09/03 Q1022
  • 201150Z 34019KT 9999 SCT031 08/03 Q1022
  • 201120Z 34016KT 9999 SCT027 08/03 Q1022
  • 201050Z 33015KT 9999 BKN027 08/03 Q1022
  • 201020Z 33016KT 9999 SCT030 07/03 Q1022

TAF TAF EGNX
Valide du 20 à 12h jusqu'au 21 à 12h UTC


201104Z 2012/2112 35015KT 9999 FEW025
PROB40
TEMPO 2012/2019 36018G28KT
PROB30
TEMPO 2016/2021 BKN014
BECMG 2101/2104 35005KT BKN014
PROB30
TEMPO 2101/2106 8000 -RADZ BKN009
ATIS : +44 1332 852 852 (ext 3201)
Pas de NOTAMs connus pour ce terrain.



MET'MAP, la Météo Aéronautique d'un coup d'oeil ! - Copyright ORBIFLY Décembre 2007 - Disclaimer

ORBIFLY MET'MAP TEAM :

Programmation & Développement : Alexandra Zaïnal
Conception & Développement : Baudouin d'Aumeries
Co-Programmation & Développement : Marc-Olivier Méhu
Soutien technique & logistique : Manuel Goepfert

Contact : metmap@orbifly.com




SOURCES & CREDITS :

   NOAA